createdAt,value
2022-10-23T00:00:03.969Z,59.97
2022-10-23T00:02:06.357Z,59.74
2022-10-23T00:04:20.325Z,59.84
2022-10-23T00:06:22.857Z,59.88
2022-10-23T00:08:24.927Z,60.24
2022-10-23T00:10:28.957Z,60.40
2022-10-23T00:12:31.124Z,60.59
2022-10-23T00:14:36.478Z,60.79
2022-10-23T00:16:38.703Z,60.52
2022-10-23T00:18:41.012Z,60.17
2022-10-23T00:20:43.190Z,60.30
2022-10-23T00:22:45.500Z,60.31
2022-10-23T00:24:47.816Z,60.13
2022-10-23T00:26:51.099Z,60.14
2022-10-23T00:28:54.469Z,59.95
2022-10-23T00:30:56.901Z,60.95
2022-10-23T00:32:59.008Z,60.94
2022-10-23T00:35:01.331Z,60.59
2022-10-23T00:37:03.460Z,60.80
2022-10-23T00:39:06.532Z,61.16
2022-10-23T00:41:14.935Z,60.68
2022-10-23T00:43:23.148Z,61.56
2022-10-23T00:45:27.437Z,61.23
2022-10-23T00:47:31.971Z,61.12
2022-10-23T00:49:34.647Z,61.31
2022-10-23T00:51:43.330Z,61.41
2022-10-23T00:54:01.408Z,61.82
2022-10-23T00:56:15.214Z,61.08
2022-10-23T00:58:20.483Z,61.63
2022-10-23T01:00:32.091Z,61.62
2022-10-23T01:02:35.014Z,61.25
2022-10-23T01:04:38.058Z,61.63
2022-10-23T01:07:15.943Z,61.97
2022-10-23T01:09:42.618Z,62.04
2022-10-23T01:12:07.760Z,61.86
2022-10-23T01:14:18.817Z,61.46
2022-10-23T01:16:27.269Z,61.54
2022-10-23T01:18:41.670Z,61.86
2022-10-23T01:20:43.811Z,61.20
2022-10-23T01:22:45.754Z,61.34
2022-10-23T01:25:14.118Z,61.86
2022-10-23T01:27:25.384Z,61.23
2022-10-23T01:29:39.413Z,62.17
2022-10-23T01:31:57.121Z,61.92
2022-10-23T01:34:06.383Z,61.87
2022-10-23T01:36:12.969Z,61.94
2022-10-23T01:38:27.492Z,61.88
2022-10-23T01:40:44.588Z,61.30
2022-10-23T01:42:51.014Z,61.05
2022-10-23T01:45:31.639Z,60.95
2022-10-23T01:47:38.677Z,61.54
2022-10-23T01:49:44.870Z,61.27
2022-10-23T01:51:51.971Z,61.46
2022-10-23T01:53:58.650Z,61.54
2022-10-23T01:56:03.055Z,61.51
2022-10-23T01:58:08.695Z,61.73
2022-10-23T02:00:19.016Z,61.73
2022-10-23T02:02:28.776Z,61.59
2022-10-23T02:04:41.408Z,61.38
2022-10-23T02:06:43.918Z,61.09
2022-10-23T02:08:46.280Z,61.54
2022-10-23T02:11:14.501Z,61.91
2022-10-23T02:13:25.775Z,61.97
2022-10-23T02:15:36.387Z,62.06
2022-10-23T02:18:03.701Z,62.50
2022-10-23T02:20:08.901Z,62.24
2022-10-23T02:22:26.441Z,62.18
2022-10-23T02:24:36.725Z,62.19
2022-10-23T02:26:47.093Z,61.47
2022-10-23T02:28:58.624Z,61.68
2022-10-23T02:31:04.035Z,61.46
2022-10-23T02:33:09.263Z,61.27
2022-10-23T02:35:13.466Z,61.87
2022-10-23T02:37:15.965Z,60.90
2022-10-23T02:39:18.360Z,60.96
2022-10-23T02:41:20.320Z,60.98
2022-10-23T02:43:32.567Z,61.08
2022-10-23T02:46:00.816Z,60.74
2022-10-23T02:48:27.716Z,61.38
2022-10-23T02:51:05.043Z,60.92
2022-10-23T02:53:19.139Z,61.25
2022-10-23T02:55:49.958Z,61.37
2022-10-23T02:58:17.741Z,61.87
2022-10-23T03:00:24.244Z,61.59
2022-10-23T03:02:33.380Z,62.08
2022-10-23T03:04:37.485Z,62.16
2022-10-23T03:06:39.785Z,61.84
2022-10-23T03:08:44.287Z,61.80
2022-10-23T03:10:46.403Z,61.56
2022-10-23T03:12:49.070Z,61.73
2022-10-23T03:14:51.794Z,61.49
2022-10-23T03:16:54.404Z,61.48
2022-10-23T03:19:00.824Z,61.77
2022-10-23T03:21:04.795Z,61.80
2022-10-23T03:23:13.747Z,62.27
2022-10-23T03:25:16.099Z,62.10
2022-10-23T03:28:20.681Z,62.05
2022-10-23T03:30:23.546Z,62.10
2022-10-23T03:32:29.555Z,61.95
2022-10-23T03:34:32.102Z,62.50
2022-10-23T03:36:37.041Z,62.61
2022-10-23T03:38:39.966Z,62.21
2022-10-23T03:40:43.303Z,62.26
2022-10-23T03:42:47.478Z,62.16
2022-10-23T03:44:53.981Z,62.41
2022-10-23T03:46:56.568Z,62.27
2022-10-23T03:48:59.516Z,61.98
2022-10-23T03:51:05.388Z,62.02
2022-10-23T03:53:07.399Z,62.32
2022-10-23T03:55:09.811Z,61.88
2022-10-23T03:57:12.375Z,61.81
2022-10-23T03:59:14.437Z,61.75
2022-10-23T04:01:16.588Z,61.82
2022-10-23T04:03:20.513Z,61.44
2022-10-23T04:05:22.726Z,61.85
2022-10-23T04:07:29.923Z,61.26
2022-10-23T04:09:36.227Z,61.54
2022-10-23T04:11:39.044Z,61.27
2022-10-23T04:13:41.009Z,61.08
2022-10-23T04:15:50.683Z,60.65
2022-10-23T04:17:52.903Z,61.51
2022-10-23T04:19:55.357Z,60.93
2022-10-23T04:21:57.431Z,60.85
2022-10-23T04:23:59.768Z,61.23
2022-10-23T04:26:02.373Z,60.91
2022-10-23T04:28:04.851Z,60.79
2022-10-23T04:30:12.703Z,61.27
2022-10-23T04:32:14.863Z,61.49
2022-10-23T04:34:19.663Z,61.08
2022-10-23T04:36:22.000Z,61.40
2022-10-23T04:38:24.132Z,61.68
2022-10-23T04:40:25.983Z,61.75
2022-10-23T04:42:29.965Z,62.16
2022-10-23T04:44:35.205Z,62.00
2022-10-23T04:46:37.986Z,62.04
2022-10-23T04:48:40.613Z,61.67
2022-10-23T04:51:18.425Z,61.85
2022-10-23T04:53:31.146Z,62.35
2022-10-23T04:56:06.174Z,61.66
2022-10-23T04:58:21.385Z,61.93
2022-10-23T05:00:24.696Z,61.42
2022-10-23T05:02:29.372Z,61.45
2022-10-23T05:04:32.083Z,61.89
2022-10-23T05:07:12.713Z,62.36
2022-10-23T05:09:37.641Z,62.10
2022-10-23T05:12:02.892Z,62.28
2022-10-23T05:14:05.559Z,62.26
2022-10-23T05:16:07.518Z,61.68
2022-10-23T05:18:17.905Z,62.16
2022-10-23T05:20:23.921Z,62.60
2022-10-23T05:22:30.680Z,62.54
2022-10-23T05:24:33.383Z,63.03
2022-10-23T05:26:37.461Z,62.75
2022-10-23T05:28:42.797Z,62.95
2022-10-23T05:30:49.477Z,62.68
2022-10-23T05:32:55.397Z,62.77
2022-10-23T05:35:03.095Z,63.03
2022-10-23T05:37:09.075Z,63.27
2022-10-23T05:39:13.350Z,63.38
2022-10-23T05:44:50.154Z,63.28
2022-10-23T05:47:16.121Z,62.58
2022-10-23T05:49:41.042Z,62.91
2022-10-23T05:52:15.645Z,62.74
2022-10-23T05:54:28.155Z,62.71
2022-10-23T05:56:37.013Z,63.13
2022-10-23T05:59:05.549Z,62.82
2022-10-23T06:01:25.613Z,62.56
2022-10-23T06:03:36.246Z,62.58
2022-10-23T06:05:41.056Z,62.14
2022-10-23T06:08:03.944Z,62.31
2022-10-23T06:10:06.887Z,62.08
2022-10-23T06:12:14.206Z,62.74
2022-10-23T06:14:19.951Z,62.36
2022-10-23T06:16:26.181Z,63.09
2022-10-23T06:18:29.134Z,63.24
2022-10-23T06:20:39.500Z,63.17
2022-10-23T06:22:46.836Z,63.73
2022-10-23T06:25:09.674Z,63.81
2022-10-23T06:27:11.778Z,64.10
2022-10-23T06:29:18.231Z,64.52
2022-10-23T06:31:21.826Z,63.98
2022-10-23T06:33:25.795Z,64.12
2022-10-23T06:35:28.054Z,64.23
2022-10-23T06:37:30.048Z,63.98
2022-10-23T06:39:41.541Z,63.29
2022-10-23T06:41:53.096Z,63.45
2022-10-23T06:44:13.670Z,63.22
2022-10-23T06:46:24.489Z,63.88
2022-10-23T06:49:38.439Z,64.43
2022-10-23T06:51:41.697Z,63.80
2022-10-23T06:53:47.580Z,64.09
2022-10-23T06:56:09.174Z,63.80
2022-10-23T06:58:12.143Z,63.69
2022-10-23T07:00:40.625Z,63.60
2022-10-23T07:02:43.626Z,63.36
2022-10-23T07:04:45.673Z,63.27
2022-10-23T07:06:54.759Z,63.12
2022-10-23T07:09:00.723Z,63.64
2022-10-23T07:11:23.535Z,63.14
2022-10-23T07:13:26.115Z,63.22
2022-10-23T07:15:46.846Z,63.11
2022-10-23T07:17:54.058Z,63.48
2022-10-23T07:19:57.726Z,63.44
2022-10-23T07:22:00.031Z,63.39
2022-10-23T07:24:13.776Z,63.12
2022-10-23T07:26:17.095Z,63.11
2022-10-23T07:28:19.540Z,63.11
2022-10-23T07:30:21.482Z,63.30
2022-10-23T07:32:28.751Z,63.39
2022-10-23T07:34:49.653Z,64.03
2022-10-23T07:37:00.478Z,64.15
2022-10-23T07:39:02.757Z,64.00
2022-10-23T07:41:08.986Z,63.85
2022-10-23T07:43:14.021Z,63.89
2022-10-23T07:45:16.107Z,63.65
2022-10-23T07:47:20.015Z,63.52
2022-10-23T07:49:25.580Z,63.83
2022-10-23T07:51:27.510Z,63.98
2022-10-23T07:53:35.622Z,64.11
2022-10-23T07:55:58.077Z,64.65
2022-10-23T07:58:02.353Z,64.05
2022-10-23T08:00:18.604Z,64.24
2022-10-23T08:02:30.837Z,64.15
2022-10-23T08:04:32.771Z,63.99
2022-10-23T08:06:41.406Z,63.89
2022-10-23T08:10:53.477Z,63.52
2022-10-23T08:13:01.590Z,63.41
2022-10-23T08:15:23.437Z,63.44
2022-10-23T08:17:30.169Z,63.80
2022-10-23T08:19:48.551Z,63.86
2022-10-23T08:21:54.868Z,64.01
2022-10-23T08:23:58.102Z,63.50
2022-10-23T08:26:05.556Z,63.72
2022-10-23T08:28:11.912Z,63.64
2022-10-23T08:30:25.271Z,63.41
2022-10-23T08:32:31.211Z,63.45
2022-10-23T08:34:34.775Z,63.31
2022-10-23T08:36:39.375Z,63.84
2022-10-23T08:38:41.807Z,64.05
2022-10-23T08:40:48.703Z,63.90
2022-10-23T08:43:12.149Z,64.06
2022-10-23T08:46:04.136Z,64.27
2022-10-23T08:48:38.250Z,63.81
2022-10-23T08:51:12.898Z,63.52
2022-10-23T08:53:18.149Z,63.58
2022-10-23T08:55:22.962Z,62.97
2022-10-23T08:57:33.581Z,62.61
2022-10-23T08:59:44.391Z,62.72
2022-10-23T09:02:04.848Z,63.08
2022-10-23T09:04:07.292Z,62.87
2022-10-23T09:06:20.359Z,62.86
2022-10-23T09:08:32.032Z,62.38
2022-10-23T09:10:56.887Z,62.95
2022-10-23T09:13:29.188Z,62.52
2022-10-23T09:15:41.765Z,62.39
2022-10-23T09:17:47.999Z,62.40
2022-10-23T09:19:59.299Z,62.35
2022-10-23T09:22:01.668Z,62.30
2022-10-23T09:24:04.458Z,62.25
2022-10-23T09:26:18.590Z,62.74
2022-10-23T09:28:30.423Z,62.20
2022-10-23T09:30:34.015Z,61.98
2022-10-23T09:32:38.463Z,62.22
2022-10-23T09:34:54.748Z,62.47
2022-10-23T09:37:00.201Z,62.67
2022-10-23T09:39:02.426Z,62.61
2022-10-23T09:41:16.184Z,62.47
2022-10-23T09:43:23.473Z,62.17
2022-10-23T09:45:34.968Z,61.94
2022-10-23T09:47:41.399Z,61.90
2022-10-23T09:49:49.232Z,61.86
2022-10-23T09:51:54.508Z,61.82
2022-10-23T09:54:00.858Z,61.54
2022-10-23T09:56:24.471Z,61.76
2022-10-23T09:58:54.844Z,62.21
2022-10-23T10:00:57.574Z,61.91
2022-10-23T10:03:22.707Z,61.45
2022-10-23T10:05:39.894Z,60.94
2022-10-23T10:08:03.618Z,61.33
2022-10-23T10:10:13.911Z,61.15
2022-10-23T10:12:45.897Z,61.09
2022-10-23T10:15:05.272Z,61.35
2022-10-23T10:17:15.083Z,61.15
2022-10-23T10:19:35.219Z,61.24
2022-10-23T10:21:50.614Z,61.30
2022-10-23T10:24:00.697Z,61.02
2022-10-23T10:26:02.669Z,61.03
2022-10-23T10:28:20.914Z,60.78
2022-10-23T10:30:25.007Z,60.46
2022-10-23T10:32:43.504Z,60.52
2022-10-23T10:35:19.397Z,60.68
2022-10-23T10:38:02.998Z,61.34
2022-10-23T10:40:34.801Z,60.93
2022-10-23T10:42:58.652Z,61.03
2022-10-23T10:45:01.816Z,61.32
2022-10-23T10:47:31.728Z,61.84
2022-10-23T10:49:40.888Z,61.75
2022-10-23T10:52:06.862Z,61.69
2022-10-23T10:54:21.153Z,61.58
2022-10-23T10:56:28.156Z,61.42
2022-10-23T10:58:42.211Z,61.57
2022-10-23T11:00:46.810Z,61.54
2022-10-23T11:02:48.633Z,61.66
2022-10-23T11:04:52.971Z,61.34
2022-10-23T11:06:58.179Z,61.51
2022-10-23T11:09:20.606Z,61.50
2022-10-23T11:11:32.572Z,60.93
2022-10-23T11:13:40.501Z,60.71
2022-10-23T11:15:44.307Z,60.82
2022-10-23T11:17:55.508Z,60.43
2022-10-23T11:20:18.658Z,60.48
2022-10-23T11:22:29.704Z,60.33
2022-10-23T11:24:49.468Z,60.65
2022-10-23T11:27:10.849Z,60.85
2022-10-23T11:29:27.917Z,60.94
2022-10-23T11:31:59.852Z,60.90
2022-10-23T11:34:53.050Z,60.16
2022-10-23T11:36:59.031Z,60.75
2022-10-23T11:39:22.336Z,60.72
2022-10-23T11:41:34.007Z,60.52
2022-10-23T11:43:50.642Z,60.75
2022-10-23T11:45:52.602Z,60.76
2022-10-23T11:48:22.951Z,60.85
2022-10-23T11:50:34.342Z,60.62
2022-10-23T11:52:45.618Z,60.44
2022-10-23T11:55:22.814Z,60.01
2022-10-23T11:57:25.399Z,60.06
2022-10-23T11:59:50.118Z,59.99
2022-10-23T12:01:55.715Z,60.32
2022-10-23T12:04:19.043Z,60.22
2022-10-23T12:06:31.508Z,59.80
2022-10-23T12:08:40.599Z,59.97
2022-10-23T12:10:48.326Z,60.38
2022-10-23T12:13:06.275Z,59.79
2022-10-23T12:15:19.182Z,59.90
2022-10-23T12:17:23.920Z,59.60
2022-10-23T12:19:30.753Z,59.75
2022-10-23T12:21:35.900Z,59.91
2022-10-23T12:24:09.778Z,59.84
2022-10-23T12:26:23.638Z,59.82
2022-10-23T12:28:38.280Z,59.43
2022-10-23T12:30:50.811Z,59.64
2022-10-23T12:33:20.866Z,59.79
2022-10-23T12:35:26.055Z,60.04
2022-10-23T12:37:46.365Z,59.91
2022-10-23T12:39:59.363Z,60.10
2022-10-23T12:42:01.345Z,60.27
2022-10-23T12:44:05.341Z,60.33
2022-10-23T12:46:33.983Z,60.24
2022-10-23T12:48:36.528Z,60.11
2022-10-23T12:50:38.562Z,59.89
2022-10-23T12:53:10.111Z,60.60
2022-10-23T12:55:14.648Z,60.61
2022-10-23T12:57:25.841Z,59.81
2022-10-23T12:59:39.344Z,59.90
2022-10-23T13:01:43.347Z,59.68
2022-10-23T13:03:46.203Z,59.25
2022-10-23T13:05:50.749Z,59.65
2022-10-23T13:07:53.181Z,59.22
2022-10-23T13:10:04.990Z,58.92
2022-10-23T13:15:58.314Z,59.07
2022-10-23T13:18:03.700Z,58.58
2022-10-23T13:20:35.362Z,58.31
2022-10-23T13:22:40.546Z,58.71
2022-10-23T13:24:43.259Z,58.74
2022-10-23T13:26:45.594Z,58.90
2022-10-23T13:28:47.960Z,58.61
2022-10-23T13:31:08.199Z,58.26
2022-10-23T13:33:21.979Z,58.41
2022-10-23T13:35:24.783Z,58.49
2022-10-23T13:37:30.685Z,58.00
2022-10-23T13:39:34.272Z,58.55
2022-10-23T13:41:40.110Z,58.57
2022-10-23T13:43:43.235Z,58.41
2022-10-23T13:45:45.625Z,58.25
2022-10-23T13:47:47.864Z,58.34
2022-10-23T13:49:50.179Z,57.97
2022-10-23T13:51:55.368Z,57.94
2022-10-23T13:53:57.782Z,58.02
2022-10-23T13:55:59.859Z,58.22
2022-10-23T13:58:02.760Z,58.25
2022-10-23T14:00:05.404Z,58.18
2022-10-23T14:02:25.118Z,58.31
2022-10-23T14:04:27.593Z,58.12
2022-10-23T14:06:30.552Z,58.03
2022-10-23T14:08:32.532Z,58.20
2022-10-23T14:10:35.187Z,58.54
2022-10-23T14:12:44.383Z,58.53
2022-10-23T14:14:51.948Z,58.45
2022-10-23T14:16:54.990Z,58.74
2022-10-23T14:18:59.797Z,58.50
2022-10-23T14:21:03.195Z,58.59
2022-10-23T14:23:05.498Z,58.21
2022-10-23T14:25:07.794Z,58.53
2022-10-23T14:27:09.846Z,58.32
2022-10-23T14:29:21.186Z,58.23
2022-10-23T14:31:26.349Z,58.38
2022-10-23T14:33:28.379Z,57.76
2022-10-23T14:35:30.695Z,57.75
2022-10-23T14:37:34.475Z,57.69
2022-10-23T14:39:37.006Z,57.94
2022-10-23T14:41:40.641Z,57.82
2022-10-23T14:43:43.322Z,57.91
2022-10-23T14:45:45.521Z,57.72
2022-10-23T14:47:47.845Z,57.89
2022-10-23T14:49:52.513Z,58.26
2022-10-23T14:51:54.695Z,58.26
2022-10-23T14:54:01.763Z,58.22
2022-10-23T14:56:04.834Z,58.24
2022-10-23T14:58:07.372Z,58.38
2022-10-23T15:00:10.202Z,57.93
2022-10-23T15:02:12.416Z,58.28
2022-10-23T15:04:14.931Z,57.87
2022-10-23T15:06:18.495Z,58.13
2022-10-23T15:08:24.801Z,58.43
2022-10-23T15:10:27.319Z,58.13
2022-10-23T15:12:29.544Z,57.95
2022-10-23T15:14:31.914Z,58.26
2022-10-23T15:16:41.311Z,58.16
2022-10-23T15:18:43.688Z,57.90
2022-10-23T15:20:52.628Z,57.89
2022-10-23T15:22:54.675Z,58.20
2022-10-23T15:24:57.535Z,57.67
2022-10-23T15:27:00.381Z,57.74
2022-10-23T15:29:02.696Z,57.62
2022-10-23T15:31:05.603Z,57.97
2022-10-23T15:33:08.036Z,57.27
2022-10-23T15:35:10.168Z,57.52
2022-10-23T15:37:12.135Z,57.54
2022-10-23T15:39:17.677Z,57.34
2022-10-23T15:41:28.374Z,57.71
2022-10-23T15:43:30.445Z,57.22
2022-10-23T15:45:32.748Z,57.20
2022-10-23T15:47:34.885Z,57.43
2022-10-23T15:49:37.554Z,57.23
2022-10-23T15:51:40.897Z,57.10
2022-10-23T15:53:43.166Z,57.29
2022-10-23T15:55:45.694Z,57.07
2022-10-23T15:57:48.057Z,56.71
2022-10-23T15:59:51.450Z,56.88
2022-10-23T16:01:54.354Z,56.84
2022-10-23T16:03:56.662Z,56.31
2022-10-23T16:05:58.768Z,56.52
2022-10-23T16:08:00.929Z,56.44
2022-10-23T16:10:03.139Z,56.35
2022-10-23T16:12:05.465Z,56.35
2022-10-23T16:14:08.453Z,56.38
2022-10-23T16:16:11.129Z,56.34
2022-10-23T16:18:13.340Z,56.23
2022-10-23T16:20:16.257Z,55.97
2022-10-23T16:22:18.688Z,56.30
2022-10-23T16:24:20.689Z,56.12
2022-10-23T16:26:23.794Z,55.96
2022-10-23T16:28:25.838Z,56.08
2022-10-23T16:30:28.287Z,55.70
2022-10-23T16:32:30.390Z,56.18
2022-10-23T16:34:32.439Z,56.70
2022-10-23T16:36:34.939Z,57.19
2022-10-23T16:38:56.030Z,56.61
2022-10-23T16:41:18.333Z,56.51
2022-10-23T16:43:38.835Z,56.69
2022-10-23T16:46:12.944Z,56.64
2022-10-23T16:48:15.210Z,56.54
2022-10-23T16:50:18.038Z,56.61
2022-10-23T16:52:20.328Z,56.76
2022-10-23T16:54:22.443Z,56.35
2022-10-23T16:56:28.797Z,56.23
2022-10-23T16:58:30.850Z,56.27
2022-10-23T17:00:35.382Z,56.14
2022-10-23T17:02:38.365Z,55.88
2022-10-23T17:04:40.731Z,55.91
2022-10-23T17:06:42.726Z,55.94
2022-10-23T17:08:47.521Z,56.21
2022-10-23T17:10:49.501Z,55.97
2022-10-23T17:12:51.748Z,56.16
2022-10-23T17:14:53.864Z,56.28
2022-10-23T17:17:01.664Z,57.12
2022-10-23T17:19:15.995Z,56.63
2022-10-23T17:21:23.270Z,57.07
2022-10-23T17:23:25.554Z,57.06
2022-10-23T17:25:27.939Z,56.77
2022-10-23T17:27:29.858Z,56.84
2022-10-23T17:29:31.997Z,56.59
2022-10-23T17:31:36.062Z,56.41
2022-10-23T17:33:38.332Z,56.31
2022-10-23T17:35:40.281Z,56.22
2022-10-23T17:37:42.339Z,56.22
2022-10-23T17:39:44.442Z,56.27
2022-10-23T17:41:47.399Z,56.07
2022-10-23T17:43:50.441Z,56.00
2022-10-23T17:45:52.505Z,55.98
2022-10-23T17:47:54.616Z,56.12
2022-10-23T17:49:56.715Z,55.98
2022-10-23T17:51:58.953Z,55.98
2022-10-23T17:54:04.643Z,55.78
2022-10-23T17:56:08.945Z,56.10
2022-10-23T17:58:11.133Z,56.28
2022-10-23T18:00:13.242Z,56.07
2022-10-23T18:02:15.342Z,56.26
2022-10-23T18:04:19.238Z,56.58
2022-10-23T18:06:29.657Z,56.46
2022-10-23T18:08:31.708Z,55.97
2022-10-23T18:10:36.290Z,56.75
2022-10-23T18:16:27.829Z,56.96
2022-10-23T18:18:29.990Z,56.90
2022-10-23T18:20:31.964Z,56.55
2022-10-23T18:22:34.174Z,56.39
2022-10-23T18:24:38.408Z,56.39
2022-10-23T18:26:41.665Z,55.91
2022-10-23T18:28:45.766Z,56.01
2022-10-23T18:30:50.188Z,56.01
2022-10-23T18:32:55.958Z,56.19
2022-10-23T18:34:58.286Z,56.39
2022-10-23T18:37:01.116Z,56.54
2022-10-23T18:39:04.837Z,56.57
2022-10-23T18:41:07.185Z,56.35
2022-10-23T18:43:14.853Z,56.36
2022-10-23T18:45:17.400Z,56.46
2022-10-23T18:47:19.484Z,56.91
2022-10-23T18:49:21.654Z,57.15
2022-10-23T18:51:32.166Z,57.79
2022-10-23T18:53:34.266Z,58.02
2022-10-23T18:55:36.408Z,58.47
2022-10-23T18:57:39.109Z,58.63
2022-10-23T18:59:41.118Z,59.48
2022-10-23T19:01:43.714Z,59.77
2022-10-23T19:03:45.993Z,61.02
2022-10-23T19:05:48.802Z,60.89
2022-10-23T19:07:51.071Z,60.37
2022-10-23T19:09:53.473Z,61.28
2022-10-23T19:11:55.605Z,62.87
2022-10-23T19:13:57.565Z,62.17
2022-10-23T19:15:59.774Z,61.69
2022-10-23T19:18:02.290Z,62.08
2022-10-23T19:20:11.238Z,62.20
2022-10-23T19:22:15.481Z,62.10
2022-10-23T19:24:25.854Z,62.46
2022-10-23T19:26:29.754Z,62.06
2022-10-23T19:28:37.598Z,62.29
2022-10-23T19:30:40.380Z,62.20
2022-10-23T19:32:44.322Z,62.67
2022-10-23T19:34:46.724Z,62.77
2022-10-23T19:36:50.000Z,63.05
2022-10-23T19:38:51.966Z,62.70
2022-10-23T19:40:54.112Z,62.96
2022-10-23T19:42:56.204Z,62.44
2022-10-23T19:44:58.371Z,62.17
2022-10-23T19:47:00.399Z,62.15
2022-10-23T19:49:02.383Z,62.02
2022-10-23T19:51:09.365Z,62.16
2022-10-23T19:53:11.362Z,61.54
2022-10-23T19:56:15.243Z,62.31
2022-10-23T19:58:17.079Z,61.25
2022-10-23T20:00:20.653Z,61.29
2022-10-23T20:02:22.800Z,61.52
2022-10-23T20:04:24.923Z,62.21
2022-10-23T20:06:29.486Z,62.39
2022-10-23T20:08:34.952Z,62.58
2022-10-23T20:10:41.880Z,63.50
2022-10-23T20:12:47.539Z,62.85
2022-10-23T20:15:01.925Z,63.19
2022-10-23T20:17:03.813Z,63.20
2022-10-23T20:19:09.582Z,63.39
2022-10-23T20:21:11.770Z,64.26
2022-10-23T20:23:14.097Z,64.46
2022-10-23T20:25:19.137Z,64.44
2022-10-23T20:27:21.244Z,64.36
2022-10-23T20:29:24.941Z,63.90
2022-10-23T20:31:28.335Z,64.11
2022-10-23T20:33:32.887Z,64.68
2022-10-23T20:35:42.641Z,64.90
2022-10-23T20:37:44.754Z,64.16
2022-10-23T20:39:47.252Z,64.37
2022-10-23T20:41:49.617Z,64.25
2022-10-23T20:43:51.669Z,63.78
2022-10-23T20:45:53.513Z,64.28
2022-10-23T20:47:57.703Z,64.58
2022-10-23T20:50:00.034Z,64.51
2022-10-23T20:52:03.254Z,64.09
2022-10-23T20:54:08.189Z,65.11
2022-10-23T20:56:14.375Z,64.75
2022-10-23T20:58:16.298Z,65.04
2022-10-23T21:01:21.630Z,65.38
2022-10-23T21:03:23.754Z,64.93
2022-10-23T21:05:25.847Z,65.30
2022-10-23T21:07:27.978Z,64.70
2022-10-23T21:09:30.847Z,64.65
2022-10-23T21:11:34.128Z,64.50
2022-10-23T21:13:36.651Z,64.47
2022-10-23T21:15:38.736Z,64.59
2022-10-23T21:17:41.300Z,64.89
2022-10-23T21:19:43.482Z,64.86
2022-10-23T21:21:45.423Z,64.28
2022-10-23T21:23:49.504Z,64.28
2022-10-23T21:25:51.489Z,64.59
2022-10-23T21:27:53.498Z,64.58
2022-10-23T21:29:55.515Z,64.58
2022-10-23T21:32:00.128Z,64.51
2022-10-23T21:34:02.467Z,64.12
2022-10-23T21:36:13.665Z,64.18
2022-10-23T21:38:16.416Z,64.49
2022-10-23T21:40:18.763Z,64.11
2022-10-23T21:42:21.317Z,64.24
2022-10-23T21:44:23.410Z,64.09
2022-10-23T21:46:26.982Z,64.17
2022-10-23T21:48:29.166Z,63.67
2022-10-23T21:50:34.153Z,63.81
2022-10-23T21:52:36.401Z,63.68
2022-10-23T21:54:38.486Z,63.75
2022-10-23T21:56:45.816Z,63.96
2022-10-23T21:58:47.805Z,63.71
2022-10-23T22:00:50.271Z,63.99
2022-10-23T22:02:52.370Z,63.52
2022-10-23T22:04:54.748Z,63.74
2022-10-23T22:06:56.723Z,63.42
2022-10-23T22:09:00.648Z,63.75
2022-10-23T22:11:05.582Z,63.85
2022-10-23T22:13:07.612Z,64.08
2022-10-23T22:15:10.302Z,64.03
2022-10-23T22:17:12.277Z,63.73
2022-10-23T22:19:16.491Z,64.09
2022-10-23T22:21:21.249Z,63.84
2022-10-23T22:23:23.339Z,64.02
2022-10-23T22:25:25.479Z,64.08
2022-10-23T22:27:28.085Z,64.05
2022-10-23T22:29:31.059Z,63.88
2022-10-23T22:31:34.867Z,64.19
2022-10-23T22:33:37.028Z,63.82
2022-10-23T22:35:39.167Z,64.01
2022-10-23T22:37:41.503Z,64.35
2022-10-23T22:39:43.535Z,64.28
2022-10-23T22:41:47.189Z,64.06
2022-10-23T22:43:53.641Z,64.08
2022-10-23T22:46:02.947Z,64.68
2022-10-23T22:48:05.180Z,64.48
2022-10-23T22:50:07.863Z,64.25
2022-10-23T22:52:10.058Z,64.27
2022-10-23T22:54:12.135Z,64.35
2022-10-23T22:56:18.075Z,64.26
2022-10-23T22:58:20.641Z,64.05
2022-10-23T23:00:22.767Z,64.31
2022-10-23T23:02:24.700Z,63.99
2022-10-23T23:04:43.125Z,63.56
2022-10-23T23:06:45.849Z,63.57
2022-10-23T23:08:49.436Z,63.76
2022-10-23T23:10:56.587Z,63.50
2022-10-23T23:12:58.606Z,63.87
2022-10-23T23:15:00.954Z,63.62
2022-10-23T23:17:03.905Z,63.62
2022-10-23T23:19:06.429Z,63.79
2022-10-23T23:21:08.396Z,63.92
2022-10-23T23:23:12.700Z,63.37
2022-10-23T23:25:14.828Z,63.69
2022-10-23T23:27:16.799Z,63.67
2022-10-23T23:29:19.667Z,63.66
2022-10-23T23:31:25.534Z,63.75
2022-10-23T23:33:27.808Z,63.50
2022-10-23T23:35:30.144Z,63.73
2022-10-23T23:37:32.152Z,63.81
2022-10-23T23:39:34.315Z,63.97
2022-10-23T23:41:36.540Z,64.00
2022-10-23T23:43:38.880Z,63.65
2022-10-23T23:45:41.369Z,63.44
2022-10-23T23:47:43.626Z,63.52
2022-10-23T23:49:45.954Z,63.77
2022-10-23T23:51:48.151Z,63.63
2022-10-23T23:53:51.301Z,63.35
2022-10-23T23:55:53.461Z,63.57
2022-10-23T23:57:56.687Z,63.63
2022-10-23T23:59:59.075Z,63.58
